createdAt,value
2022-12-23T00:00:40.849Z,25.52
2022-12-23T00:03:07.967Z,27.42
2022-12-23T00:05:38.959Z,21.10
2022-12-23T00:08:06.865Z,17.33
2022-12-23T00:10:35.175Z,23.77
2022-12-23T00:13:20.444Z,18.50
2022-12-23T00:15:47.182Z,16.13
2022-12-23T00:18:14.011Z,17.85
2022-12-23T00:20:40.743Z,20.13
2022-12-23T00:23:07.579Z,16.95
2022-12-23T00:25:41.960Z,14.43
2022-12-23T00:28:14.585Z,17.50
2022-12-23T00:30:55.935Z,15.18
2022-12-23T00:33:24.848Z,19.27
2022-12-23T00:35:52.188Z,19.10
2022-12-23T00:38:43.039Z,14.60
2022-12-23T00:41:33.475Z,19.08
2022-12-23T00:44:00.362Z,19.75
2022-12-23T00:46:27.290Z,25.13
2022-12-23T00:49:12.670Z,19.77
2022-12-23T00:51:39.571Z,19.42
2022-12-23T00:54:06.639Z,22.17
2022-12-23T00:56:33.461Z,29.73
2022-12-23T00:59:00.415Z,28.45
2022-12-23T01:01:45.923Z,29.52
2022-12-23T01:04:32.941Z,29.35
2022-12-23T01:06:59.750Z,18.05
2022-12-23T01:09:26.878Z,20.00
2022-12-23T01:11:53.870Z,23.63
2022-12-23T01:14:21.114Z,17.88
2022-12-23T01:16:48.190Z,17.60
2022-12-23T01:19:15.238Z,16.55
2022-12-23T01:21:42.043Z,17.27
2022-12-23T01:24:08.891Z,16.75
2022-12-23T01:26:35.792Z,18.65
2022-12-23T01:29:02.989Z,19.05
2022-12-23T01:31:30.212Z,22.35
2022-12-23T01:33:57.782Z,21.15
2022-12-23T01:36:24.895Z,20.17
2022-12-23T01:38:52.021Z,19.05
2022-12-23T01:41:44.500Z,19.63
2022-12-23T01:44:47.554Z,18.77
2022-12-23T01:47:31.507Z,20.30
2022-12-23T01:50:13.616Z,18.33
2022-12-23T01:53:17.987Z,20.33
2022-12-23T01:56:04.278Z,17.95
2022-12-23T01:58:38.777Z,14.80
2022-12-23T02:01:25.347Z,16.92
2022-12-23T02:03:55.530Z,15.65
2022-12-23T02:06:47.073Z,20.30
2022-12-23T02:09:27.717Z,22.02
2022-12-23T02:12:21.623Z,20.77
2022-12-23T02:15:36.222Z,22.95
2022-12-23T02:18:35.257Z,18.98
2022-12-23T02:21:32.166Z,18.20
2022-12-23T02:24:29.423Z,16.17
2022-12-23T02:27:08.630Z,16.65
2022-12-23T02:29:57.425Z,13.60
2022-12-23T02:32:31.850Z,22.27
2022-12-23T02:35:16.820Z,26.50
2022-12-23T02:38:00.580Z,19.88
2022-12-23T02:40:30.007Z,19.45
2022-12-23T02:43:09.029Z,18.05
2022-12-23T02:45:40.912Z,14.55
2022-12-23T02:48:20.014Z,22.85
2022-12-23T02:50:47.326Z,14.90
2022-12-23T02:53:36.144Z,17.88
2022-12-23T02:56:04.303Z,16.58
2022-12-23T02:58:38.828Z,16.63
2022-12-23T03:01:07.240Z,15.48
2022-12-23T03:03:35.505Z,15.80
2022-12-23T03:06:02.753Z,18.30
2022-12-23T03:08:39.908Z,19.80
2022-12-23T03:11:14.861Z,17.05
2022-12-23T03:13:59.914Z,20.23
2022-12-23T03:16:53.249Z,15.95
2022-12-23T03:19:33.600Z,28.25
2022-12-23T03:22:08.515Z,33.65
2022-12-23T03:24:41.196Z,50.22
2022-12-23T03:27:18.195Z,56.67
2022-12-23T03:30:01.463Z,57.38
2022-12-23T03:32:29.971Z,61.45
2022-12-23T03:34:59.372Z,67.63
2022-12-23T03:37:27.624Z,78.85
2022-12-23T03:40:23.855Z,79.45
2022-12-23T03:42:57.158Z,77.20
2022-12-23T03:45:39.429Z,69.65
2022-12-23T03:48:16.216Z,75.45
2022-12-23T03:50:44.155Z,78.43
2022-12-23T03:53:15.469Z,72.55
2022-12-23T03:55:50.647Z,82.22
2022-12-23T03:58:27.342Z,71.30
2022-12-23T04:01:23.250Z,72.85
2022-12-23T04:03:56.307Z,66.55
2022-12-23T04:06:24.260Z,75.53
2022-12-23T04:08:51.438Z,71.10
2022-12-23T04:11:18.325Z,75.47
2022-12-23T04:13:47.320Z,75.25
2022-12-23T04:18:40.795Z,64.22
2022-12-23T04:21:07.598Z,65.75
2022-12-23T04:23:34.357Z,70.80
2022-12-23T04:26:01.136Z,63.38
2022-12-23T04:28:27.927Z,65.85
2022-12-23T04:30:54.698Z,64.88
2022-12-23T04:33:21.718Z,58.72
2022-12-23T04:35:48.468Z,67.20
2022-12-23T04:38:16.496Z,55.67
2022-12-23T04:40:47.022Z,60.90
2022-12-23T04:43:13.898Z,53.78
2022-12-23T04:45:40.809Z,52.13
2022-12-23T04:48:07.520Z,49.40
2022-12-23T04:50:34.323Z,48.47
2022-12-23T04:53:01.079Z,50.53
2022-12-23T04:55:27.832Z,51.17
2022-12-23T04:57:54.567Z,45.20
2022-12-23T05:00:22.156Z,50.42
2022-12-23T05:02:49.113Z,46.65
2022-12-23T05:05:16.077Z,42.60
2022-12-23T05:07:42.884Z,35.45
2022-12-23T05:10:10.316Z,35.72
2022-12-23T05:12:37.074Z,31.42
2022-12-23T05:15:04.091Z,32.30
2022-12-23T05:17:30.872Z,30.35
2022-12-23T05:19:57.667Z,30.35
2022-12-23T05:22:24.478Z,28.38
2022-12-23T05:24:51.266Z,36.45
2022-12-23T05:27:18.330Z,32.33
2022-12-23T05:29:45.141Z,30.45
2022-12-23T05:32:11.983Z,30.77
2022-12-23T05:34:38.867Z,26.88
2022-12-23T05:37:05.644Z,25.65
2022-12-23T05:39:32.410Z,29.75
2022-12-23T05:41:59.187Z,26.77
2022-12-23T05:44:25.920Z,32.42
2022-12-23T05:46:52.779Z,29.45
2022-12-23T05:49:19.613Z,29.38
2022-12-23T05:51:46.401Z,36.13
2022-12-23T05:54:13.238Z,33.47
2022-12-23T05:56:39.975Z,29.35
2022-12-23T05:59:07.803Z,24.77
2022-12-23T06:01:35.387Z,22.40
2022-12-23T06:04:02.343Z,23.75
2022-12-23T06:06:29.194Z,25.48
2022-12-23T06:08:59.788Z,24.45
2022-12-23T06:11:27.265Z,23.60
2022-12-23T06:13:54.020Z,23.67
2022-12-23T06:16:20.969Z,24.38
2022-12-23T06:18:47.905Z,25.40
2022-12-23T06:21:14.684Z,22.20
2022-12-23T06:23:41.449Z,25.65
2022-12-23T06:26:08.585Z,22.98
2022-12-23T06:28:35.379Z,24.55
2022-12-23T06:31:02.198Z,27.83
2022-12-23T06:33:29.005Z,24.95
2022-12-23T06:35:55.786Z,23.33
2022-12-23T06:38:22.733Z,25.17
2022-12-23T06:40:49.617Z,27.50
2022-12-23T06:43:16.509Z,25.02
2022-12-23T06:45:47.522Z,21.60
2022-12-23T06:48:14.543Z,24.98
2022-12-23T06:50:41.256Z,25.13
2022-12-23T06:53:08.136Z,34.60
2022-12-23T06:55:35.112Z,28.08
2022-12-23T06:58:01.888Z,34.50
2022-12-23T07:00:28.658Z,35.10
2022-12-23T07:02:55.624Z,43.97
2022-12-23T07:05:22.683Z,39.97
2022-12-23T07:07:49.439Z,41.38
2022-12-23T07:10:16.299Z,48.33
2022-12-23T07:12:47.538Z,58.47
2022-12-23T07:15:17.464Z,68.18
2022-12-23T07:17:44.225Z,61.45
2022-12-23T07:20:13.552Z,54.20
2022-12-23T07:22:40.508Z,45.78
2022-12-23T07:25:08.067Z,46.30
2022-12-23T07:27:34.839Z,47.38
2022-12-23T07:30:01.966Z,46.83
2022-12-23T07:32:28.750Z,62.30
2022-12-23T07:34:56.136Z,62.83
2022-12-23T07:37:22.986Z,61.67
2022-12-23T07:39:49.746Z,48.15
2022-12-23T07:42:43.354Z,59.15
2022-12-23T07:45:04.585Z,53.10
2022-12-23T07:47:31.501Z,51.33
2022-12-23T07:49:58.239Z,49.10
2022-12-23T07:52:24.996Z,46.40
2022-12-23T07:54:51.759Z,42.95
2022-12-23T07:57:18.552Z,48.58
2022-12-23T07:59:45.291Z,48.75
2022-12-23T08:02:12.237Z,47.08
2022-12-23T08:04:45.643Z,45.45
2022-12-23T08:07:12.969Z,45.10
2022-12-23T08:09:39.769Z,45.20
2022-12-23T08:12:06.876Z,42.80
2022-12-23T08:14:33.633Z,42.92
2022-12-23T08:17:00.488Z,39.25
2022-12-23T08:19:28.194Z,36.80
2022-12-23T08:21:55.016Z,41.38
2022-12-23T08:24:21.819Z,38.22
2022-12-23T08:26:48.647Z,38.00
2022-12-23T08:29:15.564Z,36.28
2022-12-23T08:31:42.432Z,33.65
2022-12-23T08:34:09.194Z,33.42
2022-12-23T08:36:36.556Z,33.40
2022-12-23T08:39:06.592Z,34.25
2022-12-23T08:41:37.224Z,39.30
2022-12-23T08:44:04.103Z,39.25
2022-12-23T08:46:31.047Z,35.28
2022-12-23T08:48:57.975Z,36.78
2022-12-23T08:51:25.969Z,36.13
2022-12-23T08:53:59.785Z,33.03
2022-12-23T08:58:59.265Z,29.08
2022-12-23T09:01:29.202Z,33.25
2022-12-23T09:03:56.743Z,34.65
2022-12-23T09:06:29.579Z,30.83
2022-12-23T09:08:56.708Z,30.10
2022-12-23T09:11:25.732Z,23.98
2022-12-23T09:13:52.760Z,23.05
2022-12-23T09:16:20.124Z,27.73
2022-12-23T09:18:47.099Z,28.00
2022-12-23T09:21:16.261Z,26.90
2022-12-23T09:23:43.196Z,26.13
2022-12-23T09:26:11.084Z,27.83
2022-12-23T09:28:39.428Z,28.38
2022-12-23T09:31:08.727Z,28.48
2022-12-23T09:33:36.335Z,36.05
2022-12-23T09:36:03.691Z,33.92
2022-12-23T09:38:30.900Z,36.75
2022-12-23T09:41:11.492Z,44.45
2022-12-23T09:43:45.282Z,48.25
2022-12-23T09:46:15.053Z,51.35
2022-12-23T09:48:48.432Z,47.70
2022-12-23T09:51:17.632Z,48.63
2022-12-23T09:54:05.705Z,49.65
2022-12-23T09:56:54.188Z,47.33
2022-12-23T09:59:29.868Z,48.50
2022-12-23T10:01:56.698Z,55.97
2022-12-23T10:05:03.068Z,52.28
2022-12-23T10:07:42.141Z,52.10
2022-12-23T10:10:20.518Z,45.80
2022-12-23T10:12:50.141Z,39.33
2022-12-23T10:15:22.129Z,59.30
2022-12-23T10:17:51.449Z,50.10
2022-12-23T10:20:29.306Z,58.88
2022-12-23T10:22:57.304Z,53.85
2022-12-23T10:25:32.665Z,59.15
2022-12-23T10:27:59.549Z,59.85
2022-12-23T10:30:53.912Z,58.97
2022-12-23T10:33:24.002Z,60.28
2022-12-23T10:57:23.635Z,49.17
2022-12-23T10:59:50.499Z,54.78
2022-12-23T11:02:57.488Z,48.00
2022-12-23T11:10:16.085Z,62.00
2022-12-23T11:13:58.877Z,47.42
2022-12-23T12:04:04.744Z,64.38
2022-12-23T12:06:51.268Z,63.78
2022-12-23T12:09:49.287Z,63.17
2022-12-23T12:17:38.233Z,62.67
2022-12-23T12:24:14.597Z,60.75
2022-12-23T12:26:42.128Z,60.53
2022-12-23T12:43:35.433Z,56.08
2022-12-23T12:46:20.214Z,50.80
2022-12-23T13:03:03.911Z,53.67
2022-12-23T13:05:39.574Z,44.30
2022-12-23T13:17:02.982Z,57.03
2022-12-23T13:37:49.863Z,50.13
2022-12-23T13:40:42.185Z,43.80
2022-12-23T13:43:43.572Z,51.63
2022-12-23T13:50:11.872Z,43.20
2022-12-23T14:06:38.017Z,43.83
2022-12-23T14:09:30.687Z,38.78
2022-12-23T14:12:42.763Z,43.65
2022-12-23T14:15:18.602Z,34.30
2022-12-23T14:31:41.642Z,23.80
2022-12-23T14:34:20.441Z,13.88
2022-12-23T14:37:40.456Z,9.35
2022-12-23T14:49:29.694Z,3.88
2022-12-23T14:51:50.861Z,6.97
2022-12-23T14:54:39.544Z,5.20
2022-12-23T14:57:16.539Z,4.38
2022-12-23T14:59:57.025Z,4.18
2022-12-23T15:02:42.754Z,6.75
2022-12-23T15:05:28.196Z,4.10
2022-12-23T15:07:56.977Z,4.47
2022-12-23T15:10:26.113Z,4.60
2022-12-23T15:12:56.174Z,6.80
2022-12-23T15:15:25.377Z,8.82
2022-12-23T15:18:13.147Z,8.05
2022-12-23T15:21:04.011Z,9.38
2022-12-23T15:23:50.627Z,7.82
2022-12-23T15:26:17.825Z,6.78
2022-12-23T15:29:07.310Z,7.50
2022-12-23T15:31:42.486Z,7.88
2022-12-23T15:34:17.072Z,8.27
2022-12-23T15:37:03.791Z,7.80
2022-12-23T15:39:54.120Z,8.32
2022-12-23T15:42:48.092Z,10.30
2022-12-23T15:45:36.513Z,9.07
2022-12-23T15:48:05.371Z,8.63
2022-12-23T15:50:40.491Z,8.25
2022-12-23T15:53:09.711Z,8.23
2022-12-23T15:55:39.293Z,13.38
2022-12-23T15:58:06.145Z,10.55
2022-12-23T16:00:40.243Z,12.30
2022-12-23T16:03:19.340Z,11.18
2022-12-23T16:05:46.191Z,8.60
2022-12-23T16:08:24.627Z,7.88
2022-12-23T16:11:14.889Z,9.98
2022-12-23T16:13:58.797Z,7.35
2022-12-23T16:16:45.031Z,8.35
2022-12-23T16:19:49.804Z,7.40
2022-12-23T16:22:44.831Z,7.28
2022-12-23T16:25:14.887Z,5.90
2022-12-23T16:27:48.248Z,8.63
2022-12-23T16:30:24.258Z,8.00
2022-12-23T16:32:56.430Z,7.82
2022-12-23T16:35:43.702Z,8.00
2022-12-23T16:38:30.184Z,7.53
2022-12-23T16:41:15.300Z,5.85
2022-12-23T16:43:47.693Z,4.38
2022-12-23T16:46:20.148Z,4.28
2022-12-23T16:48:55.551Z,4.50
2022-12-23T16:51:23.632Z,6.05
2022-12-23T16:53:52.550Z,12.65
2022-12-23T16:56:21.206Z,6.45
2022-12-23T17:01:20.934Z,6.15
2022-12-23T17:03:47.886Z,5.75
2022-12-23T17:06:16.612Z,4.13
2022-12-23T17:08:43.971Z,2.67
2022-12-23T17:11:19.859Z,4.45
2022-12-23T17:13:47.074Z,2.53
2022-12-23T17:16:15.687Z,4.15
2022-12-23T17:21:36.844Z,7.07
2022-12-23T17:24:22.520Z,9.68
2022-12-23T17:26:49.749Z,8.75
2022-12-23T17:29:17.022Z,12.05
2022-12-23T17:31:45.008Z,7.05
2022-12-23T17:34:16.590Z,10.25
2022-12-23T17:36:49.602Z,10.70
2022-12-23T17:39:17.413Z,7.35
2022-12-23T17:41:44.261Z,13.40
2022-12-23T17:44:13.810Z,7.93
2022-12-23T17:46:40.743Z,12.15
2022-12-23T17:49:08.742Z,9.48
2022-12-23T17:51:35.575Z,10.50
2022-12-23T17:54:04.612Z,11.23
2022-12-23T17:56:31.545Z,15.65
2022-12-23T17:58:58.657Z,16.05
2022-12-23T18:01:30.475Z,18.73
2022-12-23T18:03:58.944Z,13.48
2022-12-23T18:06:27.691Z,18.48
2022-12-23T18:11:21.222Z,18.83
2022-12-23T18:13:49.528Z,13.02
2022-12-23T18:16:16.359Z,19.20
2022-12-23T18:18:46.483Z,17.00
2022-12-23T18:21:21.196Z,22.90
2022-12-23T18:23:48.074Z,19.25
2022-12-23T18:26:15.259Z,20.55
2022-12-23T18:28:43.043Z,21.67
2022-12-23T18:31:18.543Z,24.55
2022-12-23T18:33:45.990Z,17.50
2022-12-23T18:36:25.764Z,19.92
2022-12-23T18:38:53.446Z,15.43
2022-12-23T18:41:21.577Z,19.25
2022-12-23T18:43:48.781Z,20.58
2022-12-23T18:46:15.678Z,19.33
2022-12-23T18:48:42.735Z,21.20
2022-12-23T18:51:16.486Z,22.23
2022-12-23T18:53:43.885Z,25.02
2022-12-23T18:56:15.179Z,22.98
2022-12-23T18:58:42.344Z,24.13
2022-12-23T19:01:14.006Z,22.33
2022-12-23T19:03:41.490Z,21.15
2022-12-23T19:06:10.012Z,22.08
2022-12-23T19:08:37.461Z,26.63
2022-12-23T19:11:16.247Z,23.50
2022-12-23T19:13:43.084Z,24.42
2022-12-23T19:16:17.972Z,28.95
2022-12-23T19:18:45.552Z,30.30
2022-12-23T19:21:30.899Z,28.83
2022-12-23T19:23:58.617Z,50.97
2022-12-23T19:26:25.534Z,34.55
2022-12-23T19:28:52.433Z,31.92
2022-12-23T19:31:19.571Z,31.15
2022-12-23T19:33:47.157Z,30.17
2022-12-23T19:36:16.924Z,27.42
2022-12-23T19:38:43.812Z,29.55
2022-12-23T19:41:10.804Z,22.65
2022-12-23T19:43:38.701Z,22.15
2022-12-23T19:46:11.010Z,20.58
2022-12-23T19:48:38.178Z,20.50
2022-12-23T19:51:06.430Z,20.83
2022-12-23T19:53:33.731Z,20.80
2022-12-23T19:56:22.448Z,15.60
2022-12-23T19:58:49.870Z,20.67
2022-12-23T20:01:19.380Z,16.45
2022-12-23T20:03:47.426Z,17.60
2022-12-23T20:06:18.853Z,17.42
2022-12-23T20:08:46.726Z,18.02
2022-12-23T20:11:17.143Z,9.93
2022-12-23T20:13:44.668Z,16.60
2022-12-23T20:16:11.648Z,16.83
2022-12-23T20:18:38.965Z,15.32
2022-12-23T20:21:07.024Z,15.93
2022-12-23T20:23:34.105Z,15.27
2022-12-23T20:26:01.029Z,16.27
2022-12-23T20:28:28.131Z,16.75
2022-12-23T20:31:07.801Z,12.18
2022-12-23T20:33:54.010Z,16.77
2022-12-23T20:36:25.149Z,17.55
2022-12-23T20:38:52.571Z,10.88
2022-12-23T20:41:21.735Z,13.13
2022-12-23T20:44:23.468Z,12.90
2022-12-23T20:46:36.212Z,14.73
2022-12-23T20:49:03.120Z,12.90
2022-12-23T20:51:29.947Z,22.63
2022-12-23T20:53:59.903Z,21.58
2022-12-23T20:56:30.487Z,18.85
2022-12-23T20:58:59.258Z,15.07
2022-12-23T21:01:28.197Z,23.33
2022-12-23T21:03:57.910Z,26.23
2022-12-23T21:06:45.123Z,32.08
2022-12-23T21:09:30.577Z,30.90
2022-12-23T21:11:57.472Z,27.52
2022-12-23T21:14:24.266Z,27.75
2022-12-23T21:16:51.339Z,30.50
2022-12-23T21:19:20.601Z,28.63
2022-12-23T21:21:48.439Z,30.02
2022-12-23T21:24:15.986Z,23.35
2022-12-23T21:26:42.821Z,25.88
2022-12-23T21:29:10.834Z,26.80
2022-12-23T21:31:40.413Z,23.30
2022-12-23T21:34:07.849Z,23.58
2022-12-23T21:36:37.292Z,22.83
2022-12-23T21:39:05.637Z,24.38
2022-12-23T21:41:36.037Z,19.33
2022-12-23T21:44:03.709Z,20.40
2022-12-23T21:46:30.685Z,26.25
2022-12-23T21:48:58.823Z,20.40
2022-12-23T21:51:39.480Z,20.45
2022-12-23T21:54:07.845Z,21.77
2022-12-23T21:56:34.880Z,18.38
2022-12-23T21:59:20.428Z,23.75
2022-12-23T22:01:47.800Z,18.45
2022-12-23T22:04:14.604Z,19.70
2022-12-23T22:06:45.849Z,21.38
2022-12-23T22:09:18.103Z,18.77
2022-12-23T22:11:45.572Z,17.65
2022-12-23T22:14:16.165Z,19.55
2022-12-23T22:16:43.403Z,17.30
2022-12-23T22:19:11.640Z,13.50
2022-12-23T22:21:39.850Z,15.70
2022-12-23T22:24:07.318Z,16.75
2022-12-23T22:26:34.638Z,13.73
2022-12-23T22:29:04.300Z,16.58
2022-12-23T22:31:31.131Z,18.83
2022-12-23T22:34:19.378Z,16.15
2022-12-23T22:36:46.481Z,16.77
2022-12-23T22:39:20.041Z,16.45
2022-12-23T22:41:51.617Z,14.63
2022-12-23T22:44:18.771Z,12.52
2022-12-23T22:46:45.705Z,15.50
2022-12-23T22:49:13.939Z,12.82
2022-12-23T22:52:01.580Z,15.38
2022-12-23T22:54:46.939Z,10.68
2022-12-23T22:57:13.810Z,11.77
2022-12-23T22:59:40.634Z,10.30
2022-12-23T23:02:07.673Z,12.25
2022-12-23T23:04:34.704Z,9.48
2022-12-23T23:07:01.533Z,9.25
2022-12-23T23:09:28.431Z,9.93
2022-12-23T23:11:55.229Z,11.70
2022-12-23T23:14:22.134Z,16.70
2022-12-23T23:16:49.151Z,10.50
2022-12-23T23:19:16.575Z,8.73
2022-12-23T23:21:43.961Z,12.48
2022-12-23T23:24:12.093Z,9.10
2022-12-23T23:26:39.024Z,11.07
2022-12-23T23:29:05.790Z,9.73
2022-12-23T23:31:41.972Z,17.05
2022-12-23T23:34:10.372Z,8.48
2022-12-23T23:36:37.239Z,11.15
2022-12-23T23:39:04.264Z,8.75
2022-12-23T23:41:31.081Z,12.63
2022-12-23T23:44:16.731Z,9.80
2022-12-23T23:46:45.424Z,9.48
2022-12-23T23:49:12.686Z,12.25
2022-12-23T23:51:41.708Z,9.35
2022-12-23T23:54:09.085Z,10.18
2022-12-23T23:56:38.788Z,7.97
2022-12-23T23:59:07.425Z,8.10
